Liberty Promise — WWMZ — position and weather

sailwx.info

Track history (hours):
 
Tides and Currents Weather Stations Pressure Air Temp Water Temp Dewpoint Dewpoint Depression Visibility Wind Speed Wind Dir Waves Ship Positions

Liberty Promise

Owner: LIBERTY PROMISE CORPORATION, LAKE SUCCESS, NY. More information available from US FCC via Universal Licensing System and Coast Guard Vessel Documentation Center.

Last reported at 2017-Sep-22 02:00 UTC. Time now 2017-Sep-23 18:20 UTC.
Position N 39°44' W 075°30'.

Length 200 m; draft 9 m.

Type: Cargo ship. MMSI: 366102000.

Date/timePositionNaut miles runAvg speedWind from/ knotsBaromVisibWave heightAir tempDewpointWater temp
2017-Sep-22 02:00N 39°44' W 075°30'611.0
2017-Sep-22 01:30N 39°48' W 075°25'713.5
2017-Sep-22 01:00N 39°51' W 075°17'611.6
2017-Sep-22 00:30N 39°53' W 075°10'2 3.0
2017-Sep-22 00:00N 39°54' W 075°08'0 0.0
2017-Sep-21 23:30N 39°54' W 075°08'0 0.0
2017-Sep-21 23:00N 39°54' W 075°08'0 0.0
2017-Sep-21 22:30N 39°54' W 075°08'0 0.0
2017-Sep-21 22:00N 39°54' W 075°08'0 0.0
2017-Sep-21 21:30N 39°54' W 075°08'0 0.0
2017-Sep-21 21:00N 39°54' W 075°08'0 0.0
2017-Sep-21 20:30N 39°54' W 075°08'0 0.0
2017-Sep-21 20:00N 39°54' W 075°08'0 0.0
2017-Sep-21 19:30N 39°54' W 075°08'0 0.0
2017-Sep-21 19:00N 39°54' W 075°08'0 0.0
2017-Sep-21 18:30N 39°54' W 075°08'0 0.0
2017-Sep-21 18:00N 39°54' W 075°08'0 0.0
2017-Sep-21 17:30N 39°54' W 075°08'0 0.0
2017-Sep-21 17:00N 39°54' W 075°08'0 0.0
2017-Sep-21 16:30N 39°54' W 075°08'0 0.0
2017-Sep-21 16:00N 39°54' W 075°08'0 0.0
2017-Sep-21 15:30N 39°54' W 075°08'0 0.0
2017-Sep-21 15:00N 39°54' W 075°08'0 0.4
2017-Sep-21 14:30N 39°54' W 075°08'2 4.0
2017-Sep-21 14:00N 39°53' W 075°11'510.3
2017-Sep-21 13:30N 39°51' W 075°17'612.0
2017-Sep-21 13:00N 39°49' W 075°24'5 9.7
2017-Sep-21 12:31N 39°46' W 075°29'611.7
2017-Sep-21 12:00N 39°40' W 075°32'611.1
2017-Sep-21 11:31N 39°35' W 075°33'611.4
2017-Sep-21 11:00N 39°29' W 075°34'713.2
2017-Sep-21 10:30N 39°24' W 075°29'713.3
2017-Sep-21 10:01N 39°19' W 075°23'612.9
2017-Sep-21 09:30N 39°14' W 075°18'714.0
2017-Sep-21 09:00N 39°08' W 075°13'714.3
2017-Sep-21 08:31N 39°01' W 075°09'815.5
2017-Sep-21 08:00N 38°54' W 075°05'713.6
2017-Sep-21 07:30N 38°48' W 075°03'3 5.9
2017-Sep-21 07:00N 38°46' W 074°60'4 7.2
2017-Sep-21 06:30N 38°44' W 074°56'  
2017-Sep-17 09:05N 31°08' W 081°32'0 3.0
2017-Sep-17 08:59N 31°08' W 081°31'2 3.6
2017-Sep-17 08:25N 31°07' W 081°29'7 9.1
2017-Sep-17 07:37N 31°06' W 081°21'110.6
2017-Sep-17 07:30N 31°06' W 081°20'4 7.8
2017-Sep-17 07:00N 31°04' W 081°16'5 9.9
2017-Sep-17 06:28N 31°00' W 081°11'1013.9
2017-Sep-17 05:44N 30°57' W 080°60'314.8
2017-Sep-17 05:30N 30°56' W 080°56'237 6.1
2017-Sep-15 14:41N 27°06' W 079°53'213.8
2017-Sep-15 14:30N 27°03' W 079°53'713.8
2017-Sep-15 14:00N 26°56' W 079°53'713.7
2017-Sep-15 13:30N 26°49' W 079°53'713.4
2017-Sep-15 13:00N 26°43' W 079°54'713.0
2017-Sep-15 12:30N 26°36' W 079°54'713.8
2017-Sep-15 12:01N 26°29' W 079°54'816.2
2017-Sep-15 11:31N 26°21' W 079°54'816.5
2017-Sep-15 11:00N 26°13' W 079°55'816.4
2017-Sep-15 10:30N 26°05' W 079°55'816.3
2017-Sep-15 10:00N 25°57' W 079°56'816.0
2017-Sep-15 09:31N 25°49' W 079°56'815.9
2017-Sep-15 09:00N 25°41' W 079°56'815.9
2017-Sep-15 08:30N 25°33' W 079°57'815.8
2017-Sep-15 08:01N 25°25' W 079°57'1115.6
2017-Sep-15 07:20N 25°14' W 079°58'  
Track history (hours):
 
Tides and Currents Weather Stations Pressure Air Temp Water Temp Dewpoint Dewpoint Depression Visibility Wind Speed Wind Dir Waves Ship Positions

Liberty Promise

Owner: LIBERTY PROMISE CORPORATION, LAKE SUCCESS, NY. More information available from US FCC via Universal Licensing System and Coast Guard Vessel Documentation Center.

Last reported at 2017-Sep-22 02:00 UTC. Time now 2017-Sep-23 18:20 UTC.
Position N 39°44' W 075°30'.

Length 200 m; draft 9 m.

Type: Cargo ship. MMSI: 366102000.

Date/timePositionNaut miles runAvg speedWind from/ knotsBaromVisibWave heightAir tempDewpointWater temp
2017-Sep-22 02:00N 39°44' W 075°30'611.0
2017-Sep-22 01:30N 39°48' W 075°25'713.5
2017-Sep-22 01:00N 39°51' W 075°17'611.6
2017-Sep-22 00:30N 39°53' W 075°10'2 3.0
2017-Sep-22 00:00N 39°54' W 075°08'0 0.0
2017-Sep-21 23:30N 39°54' W 075°08'0 0.0
2017-Sep-21 23:00N 39°54' W 075°08'0 0.0
2017-Sep-21 22:30N 39°54' W 075°08'0 0.0
2017-Sep-21 22:00N 39°54' W 075°08'0 0.0
2017-Sep-21 21:30N 39°54' W 075°08'0 0.0
2017-Sep-21 21:00N 39°54' W 075°08'0 0.0
2017-Sep-21 20:30N 39°54' W 075°08'0 0.0
2017-Sep-21 20:00N 39°54' W 075°08'0 0.0
2017-Sep-21 19:30N 39°54' W 075°08'0 0.0
2017-Sep-21 19:00N 39°54' W 075°08'0 0.0
2017-Sep-21 18:30N 39°54' W 075°08'0 0.0
2017-Sep-21 18:00N 39°54' W 075°08'0 0.0
2017-Sep-21 17:30N 39°54' W 075°08'0 0.0
2017-Sep-21 17:00N 39°54' W 075°08'0 0.0
2017-Sep-21 16:30N 39°54' W 075°08'0 0.0
2017-Sep-21 16:00N 39°54' W 075°08'0 0.0
2017-Sep-21 15:30N 39°54' W 075°08'0 0.0
2017-Sep-21 15:00N 39°54' W 075°08'0 0.4
2017-Sep-21 14:30N 39°54' W 075°08'2 4.0
2017-Sep-21 14:00N 39°53' W 075°11'510.3
2017-Sep-21 13:30N 39°51' W 075°17'612.0
2017-Sep-21 13:00N 39°49' W 075°24'5 9.7
2017-Sep-21 12:31N 39°46' W 075°29'611.7
2017-Sep-21 12:00N 39°40' W 075°32'611.1
2017-Sep-21 11:31N 39°35' W 075°33'611.4
2017-Sep-21 11:00N 39°29' W 075°34'713.2
2017-Sep-21 10:30N 39°24' W 075°29'713.3
2017-Sep-21 10:01N 39°19' W 075°23'612.9
2017-Sep-21 09:30N 39°14' W 075°18'714.0
2017-Sep-21 09:00N 39°08' W 075°13'714.3
2017-Sep-21 08:31N 39°01' W 075°09'815.5
2017-Sep-21 08:00N 38°54' W 075°05'713.6
2017-Sep-21 07:30N 38°48' W 075°03'3 5.9
2017-Sep-21 07:00N 38°46' W 074°60'4 7.2
2017-Sep-21 06:30N 38°44' W 074°56'  
2017-Sep-17 09:05N 31°08' W 081°32'0 3.0
2017-Sep-17 08:59N 31°08' W 081°31'2 3.6
2017-Sep-17 08:25N 31°07' W 081°29'7 9.1
2017-Sep-17 07:37N 31°06' W 081°21'110.6
2017-Sep-17 07:30N 31°06' W 081°20'4 7.8
2017-Sep-17 07:00N 31°04' W 081°16'5 9.9
2017-Sep-17 06:28N 31°00' W 081°11'1013.9
2017-Sep-17 05:44N 30°57' W 080°60'314.8
2017-Sep-17 05:30N 30°56' W 080°56'237 6.1
2017-Sep-15 14:41N 27°06' W 079°53'213.8
2017-Sep-15 14:30N 27°03' W 079°53'713.8
2017-Sep-15 14:00N 26°56' W 079°53'713.7
2017-Sep-15 13:30N 26°49' W 079°53'713.4
2017-Sep-15 13:00N 26°43' W 079°54'713.0
2017-Sep-15 12:30N 26°36' W 079°54'713.8
2017-Sep-15 12:01N 26°29' W 079°54'816.2
2017-Sep-15 11:31N 26°21' W 079°54'816.5
2017-Sep-15 11:00N 26°13' W 079°55'816.4
2017-Sep-15 10:30N 26°05' W 079°55'816.3
2017-Sep-15 10:00N 25°57' W 079°56'816.0
2017-Sep-15 09:31N 25°49' W 079°56'815.9
2017-Sep-15 09:00N 25°41' W 079°56'815.9
2017-Sep-15 08:30N 25°33' W 079°57'815.8
2017-Sep-15 08:01N 25°25' W 079°57'1115.6
2017-Sep-15 07:20N 25°14' W 079°58'  

Dump ship's entire track history